METAR Data
IDs: Format: Raw Decoded Include TAF

Data at: 1027 UTC 18 Jan 2022

KBIS 180952Z AUTO 24006KT 10SM CLR 02/M02 A2942 RMK AO2 SLP975 T00171022
KBIS 180852Z AUTO 20004KT 10SM CLR M07/M08 A2943 RMK AO2 SLP984 T10671078 56028
KBIS 180752Z AUTO 00000KT 10SM CLR M03/M04 A2946 RMK AO2 SLP991 T10331039
KBIS 180652Z AUTO 11004KT 10SM CLR M03/M04 A2948 RMK AO2 SLP000 T10331039
KBIS 180552Z AUTO 09003KT 10SM CLR M04/M04 A2952 RMK AO2 SLP015 T10391044 11006 21039 400501078 56032
KBIS 180452Z AUTO 06004KT 10SM CLR M03/M04 A2955 RMK AO2 SLP025 T10331044
KBIS 180352Z 09005KT 10SM CLR M03/M04 A2957 RMK AO2 SLP033 T10281039
KBIS 180252Z 06005KT 10SM CLR M03/M04 A2962 RMK AO2 SLP051 T10281039 58018
KBIS 180152Z 06005KT 10SM CLR M03/M04 A2964 RMK AO2 SLP059 T10281039
KBIS 180052Z 06005KT 10SM FEW100 M02/M03 A2966 RMK AO2 SLP065 T10171033
KBIS 172352Z 05007KT 10SM FEW100 M01/M02 A2967 RMK AO2 SLP068 T10061022 10050 21006 56006
KBIS 172252Z 06005KT 10SM CLR 01/M02 A2967 RMK AO2 SLP068 T00111022
KBIS 172152Z 28004KT 10SM CLR 04/M01 A2968 RMK AO2 SLP071 T00441011
KBIS 172052Z 28005KT 10SM CLR 05/M01 A2969 RMK AO2 SLP074 T00501011 55014
KBIS 171952Z 00000KT 10SM CLR 04/M02 A2969 RMK AO2 SLP073 T00391022
KBIS 171852Z 00000KT 10SM CLR 02/M02 A2972 RMK AO2 SLP086 T00171022
KBIS 171752Z 00000KT 10SM CLR 01/M02 A2973 RMK AO2 SLP091 T00111022 10011 21044 58003
KBIS 171652Z 00000KT 10SM CLR 00/M03 A2974 RMK AO2 SLP096 T00001028
KBIS 171552Z 00000KT 10SM OVC080 M01/M03 A2974 RMK AO2 SLP095 T10111028
KBIS 171452Z 00000KT 10SM OVC080 M03/M04 A2974 RMK AO2 SLP095 T10281039 56015
KBIS 171352Z 07005KT 10SM OVC065 M03/M04 A2976 RMK AO2 SLP099 T10331044
KBIS 171252Z 05008KT 10SM OVC080 M04/M06 A2976 RMK AO2 SLP100 T10391056
KBIS 171152Z 02003KT 10SM FEW075 OVC090 M04/M06 A2979 RMK AO2 SLP108 I6001 T10441056 11044 21078 56016
KBIS 171052Z 10004KT 10SM OVC090 M05/M06 A2980 RMK AO2 SLP111 T10501056
KBIS 170952Z 00000KT 10SM OVC100 M06/M06 A2982 RMK AO2 SLP118 T10561061
KBIS 170852Z 00000KT 10SM SCT110 M06/M07 A2984 RMK AO2 SLP126 I3001 T10611067 58017
KBIS 170752Z 00000KT 10SM SCT110 M05/M06 A2986 RMK AO2 SLP134 T10501056
KBIS 170704Z 26004KT 3SM BR CLR M06/M07 A2989 RMK AO2 T10611067
KBIS 170652Z 00000KT 1SM R31/P6000FT BR CLR M07/M08 A2989 RMK AO2 SLP144 I1001 T10721078
KBIS 170650Z 26003KT 3/4SM R31/P6000FT BR CLR M07/M07 A2989 RMK AO2 I1000
KBIS 170639Z 00000KT 1 1/2SM BR CLR M07/M08 A2990 RMK AO2 I1000 T10721078
KBIS 170634Z 27003KT 7SM CLR M07/M07 A2990 RMK AO2 I1000 T10671072
KBIS 170624Z 23003KT 2SM BR CLR M08/M08 A2990 RMK AO2 VIS 3/4V5 I1000 T10781083
KBIS 170601Z 00000KT 1 3/4SM BR CLR M06/M07 A2990 RMK AO2 T10611067
KBIS 170552Z 00000KT 10SM CLR M07/M07 A2990 RMK AO2 SLP147 I1000 I6001 T10671072 10011 21078 400391078 56016
KBIS 170508Z AUTO 00000KT 10SM CLR M06/M07 A2991 RMK AO2 T10611067
KBIS 170500Z AUTO 00000KT 3/4SM R31/P6000FT BR CLR M06/M06 A2991 RMK AO2 T10561061
KBIS 170452Z AUTO 00000KT 1SM R31/P6000FT BR CLR M07/M07 A2991 RMK AO2 SLP150 I1001 T10671072
KBIS 170450Z AUTO 00000KT 1 1/2SM BR CLR M07/M07 A2991 RMK AO2 I1001
KBIS 170352Z AUTO 00000KT 10SM CLR M04/M06 A2993 RMK AO2 SLP156 T10441056
KBIS 170252Z AUTO 00000KT 10SM CLR M04/M05 A2995 RMK AO2 SLP164 T10391050 58005
KBIS 170152Z AUTO 24004KT 10SM CLR M01/M03 A2996 RMK AO2 SLP164 T10111028
KBIS 170052Z AUTO 00000KT 10SM CLR M01/M03 A2996 RMK AO2 SLP163 T10111028
KBIS 162352Z AUTO 00000KT 10SM BKN042 02/M01 A2997 RMK AO2 SLP163 T00171011 10028 20011 58006
KBIS 162321Z AUTO 32004KT 10SM FEW018 BKN042 02/M01 A2998 RMK AO2 T00171011
KBIS 162252Z AUTO 32006KT 10SM OVC017 02/M01 A2998 RMK AO2 SLP168 T00221011